Time;durP1;ratioP1;P1;durP2;ratioP2;P2;SDS_P1;SDS_P2;PMS_P1;PMS_P2;Temp;Humidity;BMP_temperature;BMP_pressure;BME280_temperature;BME280_humidity;BME280_pressure;Samples;Min_cycle;Max_cycle;Signal;HPM_P1;HPM_P2
2022/03/28 00:02:11;;;;;;;;;30.00;26.25;;;;;11.87;55.62;102103.63;146607;631;46008;-72
2022/03/28 00:05:03;;;;;;;;;26.50;25.50;;;;;11.90;55.93;102100.31;146602;571;47010;-73
2022/03/28 00:07:55;;;;;;;;;31.50;27.25;;;;;11.95;55.94;102094.63;146607;574;46020;-71
2022/03/28 00:10:47;;;;;;;;;30.25;25.75;;;;;12.01;54.56;102097.66;146605;654;46010;-71
2022/03/28 00:13:40;;;;;;;;;31.25;25.50;;;;;12.11;54.87;102087.87;146606;648;46020;-71
2022/03/28 00:16:32;;;;;;;;;28.25;26.00;;;;;12.13;55.96;102078.47;146599;570;47912;-72
2022/03/28 00:19:25;;;;;;;;;27.50;26.00;;;;;12.06;55.57;102087.59;146606;583;46020;-75
2022/03/28 00:22:17;;;;;;;;;23.75;22.25;;;;;11.99;55.23;102091.47;146604;631;47010;-74
2022/03/28 00:25:10;;;;;;;;;24.75;22.75;;;;;11.97;55.31;102081.75;146609;582;46008;-84
2022/03/28 00:28:02;;;;;;;;;27.00;24.00;;;;;11.94;55.88;102087.66;146606;600;45913;-82
2022/03/28 00:30:54;;;;;;;;;27.25;25.50;;;;;11.89;55.57;102081.22;146608;579;46008;-86
2022/03/28 00:33:46;;;;;;;;;30.75;26.00;;;;;11.82;55.92;102073.78;146604;591;46016;-73
2022/03/28 00:36:38;;;;;;;;;25.00;22.75;;;;;11.78;56.50;102069.19;146605;660;46008;-74
2022/03/28 00:39:31;;;;;;;;;24.75;22.25;;;;;11.75;56.26;102074.19;146601;580;47010;-74
2022/03/28 00:42:23;;;;;;;;;29.00;26.25;;;;;11.70;56.45;102078.16;146607;616;46020;-76
2022/03/28 00:45:15;;;;;;;;;27.00;26.25;;;;;11.72;56.26;102085.25;146605;744;46011;-75
2022/03/28 00:48:08;;;;;;;;;29.00;25.75;;;;;11.77;57.30;102075.16;146604;638;46020;-75
2022/03/28 00:51:01;;;;;;;;;26.25;25.50;;;;;11.75;56.64;102064.69;146605;593;46016;-74
2022/03/28 00:53:54;;;;;;;;;30.00;29.25;;;;;11.74;56.47;102070.69;146608;604;46020;-75
2022/03/28 00:56:49;;;;;;;;;28.50;25.50;;;;;11.75;56.54;102066.38;146608;563;45912;-75
2022/03/28 00:59:41;;;;;;;;;25.25;24.00;;;;;11.76;56.69;102061.28;146608;569;46008;-74
2022/03/28 01:02:33;;;;;;;;;27.75;24.00;;;;;11.75;57.18;102058.59;146602;629;46032;-75
2022/03/28 01:05:26;;;;;;;;;26.50;26.00;;;;;11.73;56.88;102048.09;146604;630;46020;-72
2022/03/28 01:08:19;;;;;;;;;31.50;29.75;;;;;11.78;57.97;102046.69;146605;595;46012;-70
2022/03/28 01:11:13;;;;;;;;;34.75;30.00;;;;;11.83;57.68;102051.28;146606;622;46020;-71
2022/03/28 01:14:05;;;;;;;;;31.00;26.00;;;;;11.84;57.25;102038.44;146603;572;46010;-71
2022/03/28 01:20:09;;;;;;;;;28.25;26.50;;;;;11.86;56.42;102038.53;146601;578;46016;-70
2022/03/28 01:23:01;;;;;;;;;29.25;25.25;;;;;11.84;56.37;102033.22;146608;570;46008;-71
2022/03/28 01:25:54;;;;;;;;;28.50;26.00;;;;;11.86;57.29;102035.94;146604;565;46912;-73
2022/03/28 01:28:46;;;;;;;;;30.50;25.25;;;;;11.85;56.63;102036.75;146605;578;46008;-73
2022/03/28 01:31:42;;;;;;;;;27.50;26.50;;;;;11.88;55.92;102037.84;146604;628;46016;-74
2022/03/28 01:34:34;;;;;;;;;28.25;26.00;;;;;10.89;56.45;101862.31;146606;707;46020;-74
2022/03/28 01:37:26;;;;;;;;;28.75;25.50;;;;;10.92;56.57;101858.22;146605;616;46016;-74
2022/03/28 01:40:19;;;;;;;;;34.50;28.00;;;;;12.01;56.90;102049.97;146605;617;47008;-73
2022/03/28 01:43:11;;;;;;;;;24.50;23.50;;;;;11.99;56.58;102043.75;146600;575;47010;-73
2022/03/28 01:46:03;;;;;;;;;28.75;25.75;;;;;11.92;57.74;102046.75;146603;611;47008;-73
2022/03/28 01:48:55;;;;;;;;;28.75;25.25;;;;;11.79;57.15;102047.59;146601;606;46016;-73
2022/03/28 01:51:48;;;;;;;;;33.75;28.00;;;;;11.71;57.47;102044.50;146609;578;45021;-73
2022/03/28 01:54:41;;;;;;;;;37.00;30.00;;;;;11.64;58.09;102038.75;146602;586;46016;-75
2022/03/28 01:57:33;;;;;;;;;31.00;29.00;;;;;11.61;58.05;102035.97;146605;563;46020;-73
2022/03/28 02:00:32;;;;;;;;;24.00;23.50;;;;;11.56;58.98;102026.16;146604;634;46016;-73
2022/03/28 02:03:24;;;;;;;;;28.25;27.00;;;;;11.50;58.13;102019.66;146606;594;46008;-73
2022/03/28 02:06:16;;;;;;;;;27.75;26.25;;;;;11.49;58.69;102023.91;146601;571;45913;-73
2022/03/28 02:09:08;;;;;;;;;31.50;27.50;;;;;11.51;58.09;102024.94;146608;641;46021;-73
2022/03/28 02:12:01;;;;;;;;;34.25;29.25;;;;;11.57;58.72;102025.34;146604;653;46913;-73
2022/03/28 02:14:52;;;;;;;;;42.75;35.25;;;;;11.66;58.48;102034.59;146608;606;46008;-73
2022/03/28 02:17:45;;;;;;;;;36.50;30.75;;;;;11.74;59.14;102043.78;146604;687;47010;-75
2022/03/28 02:20:38;;;;;;;;;27.00;27.00;;;;;11.75;58.15;102035.22;146609;635;45020;-75
2022/03/28 02:23:30;;;;;;;;;32.00;29.75;;;;;11.73;58.87;102048.09;146603;578;46010;-77
2022/03/28 02:26:22;;;;;;;;;30.25;28.25;;;;;11.66;59.51;102056.25;146607;627;46020;-78
2022/03/28 02:29:14;;;;;;;;;32.00;28.75;;;;;11.57;59.34;102040.06;146603;610;46016;-75
2022/03/28 02:32:06;;;;;;;;;37.50;32.00;;;;;11.56;59.93;102040.84;146610;610;45020;-75
2022/03/28 02:34:58;;;;;;;;;39.75;31.75;;;;;11.56;59.92;102043.47;146601;583;46016;-77
2022/03/28 02:37:51;;;;;;;;;42.75;34.00;;;;;11.56;59.85;102036.56;146606;584;46021;-75
2022/03/28 02:40:43;;;;;;;;;25.00;20.25;;;;;11.61;59.70;102044.66;146603;578;47010;-75
2022/03/28 02:43:35;;;;;;;;;41.50;34.50;;;;;11.65;59.57;102046.69;146608;654;46020;-74
2022/03/28 02:46:27;;;;;;;;;35.50;32.50;;;;;11.70;59.21;102044.38;146604;631;46912;-76
2022/03/28 02:49:20;;;;;;;;;36.00;31.50;;;;;11.74;59.43;102034.31;146609;569;46020;-76
2022/03/28 02:52:12;;;;;;;;;41.00;32.25;;;;;11.77;59.15;102038.78;146605;624;45913;-71
2022/03/28 02:55:04;;;;;;;;;36.75;33.00;;;;;11.80;58.90;102042.50;146606;566;46020;-73
2022/03/28 02:57:56;;;;;;;;;65.00;51.00;;;;;11.82;58.60;102041.72;146600;564;47010;-73
2022/03/28 03:00:48;;;;;;;;;181.75;160.50;;;;;11.83;58.42;102041.81;146607;581;47008;-73
2022/03/28 03:03:40;;;;;;;;;86.67;76.67;;;;;11.89;58.51;102050.03;146611;579;47010;-73
2022/03/28 03:06:32;;;;;;;;;45.75;37.75;;;;;11.87;58.95;102055.94;146633;564;45020;-74
2022/03/28 03:09:25;;;;;;;;;35.00;30.00;;;;;11.82;58.28;102063.41;146628;591;45010;-74
2022/03/28 03:12:17;;;;;;;;;46.50;35.50;;;;;11.80;58.19;102059.78;146626;571;45918;-75
2022/03/28 03:15:10;;;;;;;;;42.00;35.00;;;;;11.82;58.12;102067.69;146626;571;45016;-69
2022/03/28 03:18:04;;;;;;;;;42.75;35.50;;;;;11.83;58.82;102072.97;146630;613;45023;-69
2022/03/28 03:20:58;;;;;;;;;43.25;34.50;;;;;11.79;59.26;102073.59;146628;584;45913;-71
2022/03/28 03:23:50;;;;;;;;;39.25;33.25;;;;;11.74;59.48;102080.16;146621;576;46919;-69
2022/03/28 03:26:42;;;;;;;;;39.00;33.00;;;;;11.66;59.96;102082.25;146627;738;45012;-68
2022/03/28 03:29:34;;;;;;;;;37.50;32.25;;;;;11.63;59.93;102088.94;146629;576;45024;-69
2022/03/28 03:32:27;;;;;;;;;39.00;31.50;;;;;11.59;59.97;102082.62;146627;589;45010;-70
2022/03/28 03:35:18;;;;;;;;;33.25;30.00;;;;;11.55;60.10;102085.78;146631;627;45008;-70
2022/03/28 03:38:11;;;;;;;;;31.25;28.75;;;;;11.51;59.28;102087.28;146628;570;45016;-71
2022/03/28 03:41:03;;;;;;;;;27.75;26.25;;;;;11.51;59.64;102089.88;146631;645;45008;-74
2022/03/28 03:43:55;;;;;;;;;29.00;27.25;;;;;11.54;59.58;102091.78;146631;600;44913;-70
2022/03/28 03:46:46;;;;;;;;;30.50;27.25;;;;;11.54;59.82;102086.59;146632;576;44020;-71
2022/03/28 03:49:38;;;;;;;;;27.50;26.50;;;;;11.53;59.69;102090.00;146624;572;48912;-70
2022/03/28 03:52:30;;;;;;;;;30.75;29.25;;;;;11.52;60.96;102101.16;146626;587;45020;-70
2022/03/28 03:55:22;;;;;;;;;33.00;29.25;;;;;11.48;61.26;102099.16;146629;640;45010;-72
2022/03/28 03:58:14;;;;;;;;;30.50;27.50;;;;;11.45;60.56;102098.94;146632;699;45008;-73
2022/03/28 04:01:09;;;;;;;;;28.00;27.00;;;;;11.37;61.49;102093.25;146625;659;45912;-72
2022/03/28 04:04:01;;;;;;;;;28.50;24.25;;;;;11.38;61.18;102100.22;146629;616;45027;-71
2022/03/28 04:06:54;;;;;;;;;28.25;22.50;;;;;10.29;61.18;101915.22;146603;575;46016;-71
2022/03/28 04:09:45;;;;;;;;;29.50;27.50;;;;;11.31;62.35;102095.41;146609;615;45020;-71
2022/03/28 04:12:38;;;;;;;;;31.25;29.25;;;;;11.29;62.03;102095.28;146603;592;46010;-71
2022/03/28 04:15:30;;;;;;;;;27.50;26.00;;;;;11.27;62.04;102095.97;146609;627;45034;-72
2022/03/28 04:18:25;;;;;;;;;29.50;29.25;;;;;11.27;60.73;102104.66;146604;575;46016;-72
2022/03/28 04:21:17;;;;;;;;;31.25;27.75;;;;;11.31;60.33;102105.78;146606;621;46021;-72
2022/03/28 04:24:09;;;;;;;;;31.00;29.75;;;;;11.38;60.27;102099.31;146606;575;46016;-71
2022/03/28 04:27:01;;;;;;;;;33.25;28.50;;;;;11.41;61.04;102103.03;146605;587;46020;-72
2022/03/28 04:29:54;;;;;;;;;29.75;25.75;;;;;11.44;60.08;102097.16;146603;578;47010;-73
2022/03/28 04:32:46;;;;;;;;;33.25;28.75;;;;;11.47;60.07;102106.06;146607;582;46020;-74
2022/03/28 04:35:38;;;;;;;;;33.25;31.00;;;;;11.54;60.14;102109.97;146604;573;46017;-74
2022/03/28 04:38:30;;;;;;;;;29.50;26.00;;;;;11.60;59.45;102113.00;146604;614;46008;-73
2022/03/28 04:41:22;;;;;;;;;40.50;32.50;;;;;11.66;58.92;102109.94;146603;569;46017;-72
2022/03/28 04:44:14;;;;;;;;;33.00;31.25;;;;;11.73;58.82;102107.84;146608;588;46008;-72
2022/03/28 04:47:06;;;;;;;;;35.50;31.75;;;;;11.80;59.15;102112.66;146606;588;46010;-73
2022/03/28 04:49:58;;;;;;;;;36.00;30.75;;;;;11.85;59.07;102110.41;146607;636;47009;-72
2022/03/28 04:52:50;;;;;;;;;44.75;37.50;;;;;11.89;58.63;102107.22;146602;563;47010;-74
2022/03/28 04:55:42;;;;;;;;;36.25;31.25;;;;;11.94;58.65;102116.25;146606;583;46020;-72
2022/03/28 04:58:35;;;;;;;;;44.50;35.75;;;;;12.00;59.54;102111.47;146604;682;47010;-71
2022/03/28 05:01:27;;;;;;;;;43.75;35.00;;;;;12.07;59.19;102119.69;146610;685;46008;-72
2022/03/28 05:04:19;;;;;;;;;41.00;34.25;;;;;12.10;59.34;102117.28;146602;572;46016;-73
2022/03/28 05:07:11;;;;;;;;;45.75;36.25;;;;;12.13;60.47;102114.87;146605;582;46020;-72
2022/03/28 05:10:05;;;;;;;;;53.75;42.25;;;;;12.13;60.22;102118.37;146601;693;46016;-72
2022/03/28 05:12:57;;;;;;;;;53.25;42.25;;;;;12.14;59.91;102124.47;146605;578;46021;-72
2022/03/28 05:15:49;;;;;;;;;66.00;49.75;;;;;12.16;60.48;102122.91;146605;644;46010;-73
2022/03/28 05:18:41;;;;;;;;;58.75;45.50;;;;;12.16;61.31;102129.00;146609;607;46008;-74
2022/03/28 05:21:34;;;;;;;;;54.75;43.25;;;;;12.12;62.07;102121.78;146604;644;46016;-74
2022/03/28 05:24:25;;;;;;;;;49.50;38.50;;;;;12.09;62.42;102129.38;146607;611;46020;-75
2022/03/28 05:27:18;;;;;;;;;47.00;38.50;;;;;12.05;61.52;102127.34;146604;566;46017;-71
2022/03/28 05:30:11;;;;;;;;;49.00;39.00;;;;;12.04;61.21;102132.47;146605;563;46008;-72
2022/03/28 05:33:03;;;;;;;;;55.00;44.50;;;;;12.07;61.39;102130.97;146606;580;45912;-72
2022/03/28 05:35:56;;;;;;;;;45.00;38.00;;;;;12.11;61.71;102132.06;146605;604;46020;-71
2022/03/28 05:38:49;;;;;;;;;46.25;36.25;;;;;12.11;61.34;102127.78;146604;591;46016;-71
2022/03/28 05:41:40;;;;;;;;;43.00;35.50;;;;;12.15;61.53;102127.19;146605;570;46020;-71
2022/03/28 05:44:33;;;;;;;;;46.75;37.75;;;;;12.19;61.28;102130.91;146603;573;46016;-72
2022/03/28 05:47:24;;;;;;;;;42.00;34.25;;;;;12.25;61.51;102136.50;146609;577;46008;-71
2022/03/28 05:50:17;;;;;;;;;43.25;34.75;;;;;12.32;60.91;102137.81;146604;575;46016;-74
2022/03/28 05:53:13;;;;;;;;;41.75;35.50;;;;;12.40;60.82;102139.25;146610;575;45020;-74
2022/03/28 05:56:05;;;;;;;;;44.00;35.00;;;;;12.51;60.86;102139.94;146605;611;46016;-75
2022/03/28 05:58:57;;;;;;;;;37.25;32.00;;;;;12.61;60.81;102134.53;146604;563;46020;-73
2022/03/28 06:01:49;;;;;;;;;41.75;32.00;;;;;12.70;60.58;102135.13;146603;621;46016;-75
2022/03/28 06:04:41;;;;;;;;;41.75;34.00;;;;;12.80;59.24;102134.91;146606;624;46021;-73
2022/03/28 06:07:33;;;;;;;;;57.75;46.00;;;;;12.93;58.98;102137.53;146603;616;47010;-74
2022/03/28 06:10:25;;;;;;;;;36.75;32.75;;;;;13.08;59.24;102137.63;146607;618;45020;-73
2022/03/28 06:13:18;;;;;;;;;43.00;35.00;;;;;13.21;59.39;102141.91;146603;596;46016;-73
2022/03/28 06:16:10;;;;;;;;;47.25;38.00;;;;;13.36;59.16;102147.19;146607;578;46008;-73
2022/03/28 06:19:03;;;;;;;;;47.50;38.75;;;;;13.50;59.20;102151.56;146604;569;46017;-76
2022/03/28 06:21:55;;;;;;;;;59.25;46.25;;;;;13.64;58.24;102152.37;146609;563;46020;-74
2022/03/28 06:24:48;;;;;;;;;59.00;45.25;;;;;13.76;57.97;102157.47;146602;564;46030;-75
2022/03/28 06:27:46;;;;;;;;;59.00;46.25;;;;;13.86;57.30;102160.75;146609;617;46008;-75
2022/03/28 06:30:38;;;;;;;;;50.00;40.00;;;;;14.00;56.60;102168.50;146605;583;45912;-75
2022/03/28 06:33:30;;;;;;;;;46.00;38.25;;;;;14.07;55.92;102170.66;146608;564;45021;-75
2022/03/28 06:36:23;;;;;;;;;49.50;40.25;;;;;14.16;56.28;102173.81;146604;583;46016;-77
2022/03/28 06:39:15;;;;;;;;;51.50;41.00;;;;;14.26;55.82;102175.25;146609;630;46020;-77
2022/03/28 06:42:07;;;;;;;;;47.00;38.00;;;;;14.32;55.48;102166.06;146605;576;47011;-76
2022/03/28 06:44:59;;;;;;;;;53.00;43.00;;;;;14.41;55.86;102164.81;146607;635;46026;-76
2022/03/28 06:47:52;;;;;;;;;55.50;44.25;;;;;14.48;55.70;102169.59;146604;616;46016;-76
2022/03/28 06:50:44;;;;;;;;;66.25;51.50;;;;;14.57;55.77;102166.66;146606;594;46021;-75
2022/03/28 06:53:38;;;;;;;;;55.75;45.50;;;;;14.65;55.30;102162.78;146601;631;47010;-75
2022/03/28 06:56:30;;;;;;;;;62.00;48.75;;;;;14.73;55.33;102156.28;146608;633;46021;-76
2022/03/28 06:59:23;;;;;;;;;62.00;48.50;;;;;14.81;55.53;102143.66;146605;600;46010;-75
2022/03/28 07:02:15;;;;;;;;;59.75;46.00;;;;;14.87;56.52;102142.31;146608;603;45021;-74
2022/03/28 07:05:09;;;;;;;;;60.00;46.25;;;;;14.90;55.15;102142.47;146606;602;46016;-71
2022/03/28 07:08:01;;;;;;;;;60.75;47.25;;;;;14.93;54.21;102139.13;146607;573;47008;-71
2022/03/28 07:10:54;;;;;;;;;61.25;48.50;;;;;14.89;53.98;102130.25;146606;594;46017;-72
2022/03/28 07:13:45;;;;;;;;;60.50;48.00;;;;;14.92;54.64;102139.94;146607;611;46008;-72
2022/03/28 07:16:38;;;;;;;;;60.00;47.50;;;;;14.91;55.00;102135.53;146605;647;46028;-73
2022/03/28 07:19:31;;;;;;;;;67.75;52.50;;;;;14.86;55.09;102124.84;146609;662;45021;-72
2022/03/28 07:22:23;;;;;;;;;64.75;49.75;;;;;14.78;55.79;102127.00;146603;636;46016;-73
2022/03/28 07:25:15;;;;;;;;;67.00;52.00;;;;;14.72;56.22;102126.66;146609;581;46020;-73
2022/03/28 07:28:17;;;;;;;;;66.25;50.50;;;;;14.63;55.33;102120.03;146606;600;46016;-71
2022/03/28 07:31:12;;;;;;;;;65.50;51.25;;;;;14.57;55.83;102117.94;146608;629;45020;-73
2022/03/28 07:37:15;;;;;;;;;61.25;49.50;;;;;14.63;55.63;102115.69;146608;581;45020;-71
2022/03/28 07:40:09;;;;;;;;;66.75;52.75;;;;;14.71;55.26;102110.91;146603;578;47012;-74
2022/03/28 07:43:02;;;;;;;;;64.25;51.25;;;;;14.76;55.04;102105.13;146607;573;46008;-74
2022/03/28 07:45:54;;;;;;;;;68.00;52.25;;;;;14.83;55.20;102111.63;146601;590;46028;-73
2022/03/28 07:48:46;;;;;;;;;65.50;51.50;;;;;14.96;55.16;102110.59;146606;605;46021;-74
2022/03/28 07:51:39;;;;;;;;;71.75;55.75;;;;;15.07;54.83;102103.31;146604;570;46016;-72
2022/03/28 07:54:32;;;;;;;;;73.75;60.75;;;;;15.17;54.94;102093.47;146606;643;46009;-73
2022/03/28 07:57:24;;;;;;;;;64.50;50.75;;;;;15.32;54.32;102097.72;146605;597;46010;-75
2022/03/28 08:00:20;;;;;;;;;51.25;41.25;;;;;15.48;53.45;102089.88;146605;589;46020;-73
2022/03/28 08:03:12;;;;;;;;;58.25;45.00;;;;;15.59;53.23;102083.50;146607;573;45913;-73
2022/03/28 08:06:04;;;;;;;;;59.50;46.75;;;;;15.75;53.47;102086.94;146607;577;47008;-77
2022/03/28 08:08:56;;;;;;;;;52.25;43.50;;;;;15.92;53.31;102084.37;146600;581;46032;-75
2022/03/28 08:11:48;;;;;;;;;71.75;57.25;;;;;16.23;52.63;102088.56;146609;668;46008;-76
2022/03/28 08:14:42;;;;;;;;;56.25;46.00;;;;;16.44;52.48;102083.47;146602;643;46016;-76
2022/03/28 08:17:34;;;;;;;;;53.25;43.25;;;;;16.66;51.94;102087.13;146609;584;46008;-75
2022/03/28 08:20:27;;;;;;;;;52.50;43.00;;;;;15.94;50.93;101941.47;146604;594;47010;-69
2022/03/28 08:23:20;;;;;;;;;61.50;48.75;;;;;16.93;51.28;102103.31;146606;569;46008;-77
2022/03/28 08:26:13;;;;;;;;;58.25;47.00;;;;;16.96;50.90;102108.69;146603;563;47010;-78
2022/03/28 08:29:05;;;;;;;;;61.00;47.50;;;;;16.91;51.17;102103.22;146605;563;46020;-74
2022/03/28 08:31:58;;;;;;;;;50.00;41.50;;;;;16.83;50.24;102105.50;146605;636;46011;-75
2022/03/28 08:34:50;;;;;;;;;56.75;44.00;;;;;16.76;51.15;102107.72;146609;600;46008;-75
2022/03/28 08:37:43;;;;;;;;;56.00;44.50;;;;;16.71;50.50;102109.22;146603;576;46016;-76
2022/03/28 08:40:35;;;;;;;;;51.00;42.75;;;;;16.68;50.73;102115.19;146605;571;46020;-77
2022/03/28 08:43:27;;;;;;;;;41.50;34.00;;;;;16.70;49.53;102120.50;146603;623;46016;-77
2022/03/28 08:46:22;;;;;;;;;44.75;35.75;;;;;16.77;48.92;102126.16;146610;594;45020;-79
2022/03/28 08:49:14;;;;;;;;;45.50;36.50;;;;;16.75;49.12;102122.53;146604;600;45912;-78
2022/03/28 08:52:10;;;;;;;;;45.75;37.00;;;;;16.74;48.92;102117.22;146606;600;45918;-79
2022/03/28 08:55:03;;;;;;;;;46.50;39.00;;;;;16.81;50.19;102121.94;146607;566;46010;-78
2022/03/28 08:57:55;;;;;;;;;48.25;40.25;;;;;16.89;48.94;102111.84;146606;690;46008;-79
2022/03/28 09:00:48;;;;;;;;;50.75;41.00;;;;;16.97;50.29;102107.84;146600;694;47013;-78
2022/03/28 09:03:50;;;;;;;;;49.75;39.50;;;;;17.02;50.19;102109.88;146608;564;46020;-76
2022/03/28 09:06:47;;;;;;;;;48.50;39.75;;;;;17.09;51.02;102109.31;146605;606;46010;-77
2022/03/28 09:09:39;;;;;;;;;49.50;40.25;;;;;17.16;50.98;102109.62;146607;569;46009;-76
2022/03/28 09:12:33;;;;;;;;;60.25;47.50;;;;;17.12;50.37;102103.34;146602;587;46016;-78
2022/03/28 09:15:25;;;;;;;;;56.25;45.00;;;;;16.99;50.10;102106.22;146607;588;46008;-75
2022/03/28 09:18:41;;;;;;;;;60.50;47.50;;;;;16.77;51.55;102092.09;146604;566;46025;-76
2022/03/28 09:21:33;;;;;;;;;60.75;47.75;;;;;16.71;51.69;102097.00;146606;706;46012;-78
2022/03/28 09:24:34;;;;;;;;;56.00;44.25;;;;;16.75;51.37;102095.44;146604;574;46011;-78
2022/03/28 09:27:30;;;;;;;;;57.25;43.75;;;;;16.81;51.69;102086.16;146602;565;47008;-79
2022/03/28 09:30:24;;;;;;;;;51.00;41.25;;;;;16.81;50.58;102070.44;146603;570;46016;-80
2022/03/28 09:33:18;;;;;;;;;54.75;43.75;;;;;16.88;50.93;102075.97;146609;564;46008;-79
2022/03/28 09:36:10;;;;;;;;;52.00;42.50;;;;;16.93;50.90;102075.38;146605;573;46016;-80
2022/03/28 09:39:02;;;;;;;;;55.25;43.50;;;;;17.06;50.87;102069.88;146610;576;45021;-78
2022/03/28 09:42:07;;;;;;;;;47.50;39.25;;;;;17.12;49.88;102066.66;146603;574;46912;-79
2022/03/28 09:45:18;;;;;;;;;49.50;39.00;;;;;17.13;50.37;102060.56;146608;576;45046;-78
2022/03/28 09:48:15;;;;;;;;;49.00;39.00;;;;;17.14;49.67;102061.50;146605;614;46910;-78
2022/03/28 09:51:09;;;;;;;;;51.25;40.75;;;;;17.15;49.83;102056.31;146608;606;46008;-77
2022/03/28 09:54:03;;;;;;;;;42.00;34.50;;;;;17.17;47.14;102059.91;146601;659;46016;-74
2022/03/28 09:57:16;;;;;;;;;42.75;35.50;;;;;16.80;48.05;101994.44;146606;673;46020;-75
2022/03/28 10:00:17;;;;;;;;;48.50;39.50;;;;;17.23;50.02;102060.19;146603;569;46012;-75
2022/03/28 10:03:11;;;;;;;;;47.00;36.25;;;;;17.26;49.06;102057.69;146606;691;46008;-76
2022/03/28 10:06:08;;;;;;;;;44.25;34.75;;;;;17.32;48.84;102057.09;146601;617;47010;-77
2022/03/28 10:09:01;;;;;;;;;47.50;40.00;;;;;17.35;50.60;102057.19;146607;632;46008;-76
2022/03/28 10:11:54;;;;;;;;;51.75;41.25;;;;;17.33;50.70;102035.28;146606;624;46016;-75
2022/03/28 10:14:46;;;;;;;;;52.75;42.75;;;;;17.39;50.39;102040.78;146600;600;47008;-77
2022/03/28 10:17:38;;;;;;;;;51.25;40.25;;;;;17.46;50.20;102036.72;146604;632;46010;-76
2022/03/28 10:20:30;;;;;;;;;44.50;36.50;;;;;17.52;47.97;102032.63;146611;563;45043;-77
2022/03/28 10:23:25;;;;;;;;;42.75;33.75;;;;;17.64;47.42;102026.13;146599;600;46016;-73
2022/03/28 10:26:20;;;;;;;;;44.00;35.50;;;;;17.73;45.87;102022.16;146606;811;46008;-79
2022/03/28 10:29:18;;;;;;;;;40.50;34.00;;;;;17.83;46.29;102018.25;146604;629;46016;-80
2022/03/28 10:32:24;;;;;;;;;38.75;31.50;;;;;18.00;46.31;102018.94;146607;580;46008;-75
2022/03/28 10:35:17;;;;;;;;;36.00;31.75;;;;;18.13;45.64;102020.34;146606;612;46912;-75
2022/03/28 10:38:19;;;;;;;;;36.00;30.75;;;;;18.23;44.25;102015.53;146608;594;46021;-73
2022/03/28 10:41:19;;;;;;;;;32.75;30.25;;;;;18.22;44.09;102012.84;146606;679;46010;-73
2022/03/28 10:44:11;;;;;;;;;35.25;31.50;;;;;18.21;45.02;102024.19;146607;620;46020;-75
2022/03/28 10:47:14;;;;;;;;;42.75;35.00;;;;;18.08;48.48;102032.38;146602;603;46017;-76
2022/03/28 10:50:06;;;;;;;;;52.75;42.25;;;;;17.79;49.09;102037.31;146604;677;47008;-75
2022/03/28 10:53:19;;;;;;;;;49.25;40.75;;;;;17.43;49.15;102042.72;146602;596;46031;-74
2022/03/28 10:56:38;;;;;;;;;49.75;41.00;;;;;17.19;49.36;102041.59;146606;567;46012;-73
2022/03/28 10:59:31;;;;;;;;;51.25;40.75;;;;;17.03;49.85;102042.63;146603;633;47010;-73
2022/03/28 11:02:33;;;;;;;;;44.75;36.50;;;;;16.37;49.69;101930.44;146608;570;46021;-73
2022/03/28 11:05:25;;;;;;;;;49.00;39.25;;;;;16.98;50.17;102039.81;146605;622;45912;-73
2022/03/28 11:08:39;;;;;;;;;57.50;45.75;;;;;17.04;49.61;102031.31;146609;580;47008;-73
2022/03/28 11:11:33;;;;;;;;;67.75;52.00;;;;;17.10;49.15;102031.59;146597;715;47910;-73
2022/03/28 11:14:46;;;;;;;;;48.50;39.75;;;;;17.13;49.47;102033.47;146606;618;46021;-73
2022/03/28 11:17:55;;;;;;;;;46.00;35.25;;;;;17.10;47.13;102021.13;146603;571;47010;-73
2022/03/28 11:20:53;;;;;;;;;44.50;36.25;;;;;17.02;48.46;102028.62;146605;648;46013;-73
2022/03/28 11:23:45;;;;;;;;;50.75;39.50;;;;;16.95;46.68;102021.34;146603;590;46016;-74
2022/03/28 11:26:38;;;;;;;;;47.75;40.00;;;;;16.04;47.72;101877.41;146609;582;46008;-73
2022/03/28 11:29:31;;;;;;;;;52.00;42.00;;;;;16.81;48.82;102012.81;146603;597;46012;-74
2022/03/28 11:32:24;;;;;;;;;51.25;41.50;;;;;16.82;47.78;102008.47;146607;591;46020;-73
2022/03/28 11:35:20;;;;;;;;;50.00;41.50;;;;;16.81;48.13;102009.31;146601;582;46010;-73
2022/03/28 11:38:13;;;;;;;;;48.50;39.25;;;;;16.83;47.50;102010.28;146610;566;46021;-73
2022/03/28 11:41:07;;;;;;;;;55.75;44.75;;;;;16.83;47.80;101994.56;146603;654;46012;-74
2022/03/28 11:44:00;;;;;;;;;60.00;47.00;;;;;16.85;47.85;101996.44;146606;599;46021;-72
2022/03/28 11:47:03;;;;;;;;;47.75;39.75;;;;;16.84;45.54;101996.34;146603;596;46034;-73
2022/03/28 11:50:03;;;;;;;;;42.00;36.25;;;;;16.78;46.40;101993.44;146608;582;46008;-72
2022/03/28 11:52:55;;;;;;;;;44.00;38.00;;;;;16.72;44.80;101987.91;146601;569;47012;-72
2022/03/28 11:55:56;;;;;;;;;42.00;33.50;;;;;16.64;43.76;101979.69;146609;634;46008;-72
2022/03/28 11:58:48;;;;;;;;;46.50;36.75;;;;;16.58;44.70;101975.06;146600;664;46016;-72
2022/03/28 12:01:41;;;;;;;;;45.25;37.50;;;;;16.56;45.52;101967.97;146608;609;45020;-72
2022/03/28 12:04:33;;;;;;;;;52.00;42.00;;;;;16.53;48.25;101963.47;146604;566;46016;-72
2022/03/28 12:07:25;;;;;;;;;56.25;43.25;;;;;16.48;49.95;101964.06;146606;597;47008;-72
2022/03/28 12:10:18;;;;;;;;;55.25;42.00;;;;;16.45;49.88;101966.53;146603;650;46016;-73
2022/03/28 12:13:11;;;;;;;;;61.00;49.00;;;;;16.40;50.21;101968.97;146606;645;46008;-72
2022/03/28 12:16:03;;;;;;;;;61.50;47.50;;;;;16.38;50.03;101967.97;146602;583;46012;-73
2022/03/28 12:18:58;;;;;;;;;66.25;52.50;;;;;16.39;49.79;101959.31;146607;600;46020;-73
2022/03/28 12:21:51;;;;;;;;;64.25;49.00;;;;;16.38;49.67;101958.41;146604;685;46011;-73
2022/03/28 12:24:57;;;;;;;;;60.50;49.50;;;;;16.40;49.37;101963.72;146604;624;46020;-73
2022/03/28 12:27:56;;;;;;;;;57.00;44.00;;;;;16.41;48.94;101957.66;146601;586;46013;-73
2022/03/28 12:30:54;;;;;;;;;54.50;44.75;;;;;16.42;48.49;101956.84;146605;576;47008;-72
2022/03/28 12:33:48;;;;;;;;;54.25;42.00;;;;;16.43;48.10;101950.78;146603;646;46010;-73
2022/03/28 12:36:40;;;;;;;;;53.50;42.25;;;;;16.48;47.83;101948.37;146605;606;46021;-72
2022/03/28 12:39:33;;;;;;;;;54.75;42.25;;;;;16.51;47.96;101948.50;146604;580;46010;-72
2022/03/28 12:42:29;;;;;;;;;51.00;41.00;;;;;16.55;48.39;101953.09;146606;615;46020;-72
2022/03/28 12:45:21;;;;;;;;;55.00;43.00;;;;;16.56;48.82;101947.91;146601;566;46913;-72
2022/03/28 12:48:13;;;;;;;;;54.25;43.50;;;;;16.61;48.58;101959.50;146608;586;46012;-72
2022/03/28 12:51:06;;;;;;;;;52.00;41.00;;;;;16.64;48.27;101953.50;146605;595;47011;-73
2022/03/28 12:54:13;;;;;;;;;65.75;52.00;;;;;16.70;48.19;101960.72;146605;610;46008;-72
2022/03/28 12:57:05;;;;;;;;;59.75;47.25;;;;;16.77;49.50;101970.72;146604;614;46913;-73
2022/03/28 12:59:58;;;;;;;;;55.00;44.50;;;;;16.79;51.56;101962.09;146605;574;46008;-73
2022/03/28 13:02:54;;;;;;;;;55.50;44.25;;;;;16.78;51.07;101962.91;146605;590;46016;-73
2022/03/28 13:05:46;;;;;;;;;57.75;44.25;;;;;16.79;50.90;101955.94;146606;577;46008;-72
2022/03/28 13:08:41;;;;;;;;;58.75;47.25;;;;;16.84;50.63;101949.19;146603;632;46030;-72
2022/03/28 13:11:32;;;;;;;;;54.25;44.50;;;;;16.87;49.67;101949.34;146608;590;46008;-72
2022/03/28 13:14:29;;;;;;;;;47.50;38.50;;;;;16.91;47.86;101946.03;146602;565;46913;-72
2022/03/28 13:17:23;;;;;;;;;55.50;45.50;;;;;16.96;48.31;101941.00;146609;573;46008;-72